map of TFF home
TFF - Airport
Location
City:  Tefé, Amazonas, Brazil
ICAO:SBTF
IATA:TFF

Details
Type:Airport (Aerodrome, Airfield)
Latitude:3°22'59"S (-3.382943)
Longitude:64°43'27"W (-64.724055)
Datum:WGS 1984
Elevation:184 ft (56 m)
Variation:12.97°W (WMM2015 magnetic declination)
-0.15° annual change
Runways:1
Longest:7218 × 148 ft (2200 × 45 m), paved

Time
Time Zone:UTC-4
Local Time:

Weather
METAR:SBTF 191500Z 06004KT 9999 SCT015 BKN100 28/24 Q1014

Related Locations
Nearby:
Farthest:WBGO: 12448 mi / 20033 km
Lio Matu, 13, MY

Find:

   beyond  
but within

Other Information
Maps:
NOTAMs:
Links:
Sources:

  
  • flag of Brazil
  • flag of Amazonas
  

Sectional Chart

Flight Planning
at skyvector.com

Satellite Image

Google Maps Satellite view

 

Copyright © 2004-2018 Karl L. Swartz. All rights reserved.
The Great Circle Mapper name and logo are trademarks of the Great Circle Mapper.
All other trademarks mentioned herein belong to their respective owners.
Please see credits for attibutions and further copyright information.

  Follow gcmap on Facebook Follow gcmap on Twitter Follow gcmap on Google+ GCmap on LinkedIn

hCard Microformat

Geo Microformat